createdAt,value
2019-06-20T00:00:17.526Z,64.42
2019-06-20T00:01:19.727Z,64.50
2019-06-20T00:02:22.329Z,64.46
2019-06-20T00:03:24.548Z,64.41
2019-06-20T00:04:28.318Z,64.44
2019-06-20T00:05:30.445Z,64.39
2019-06-20T00:06:33.051Z,64.44
2019-06-20T00:07:35.257Z,64.41
2019-06-20T00:08:37.842Z,64.53
2019-06-20T00:09:40.084Z,64.54
2019-06-20T00:10:42.745Z,64.56
2019-06-20T00:11:44.973Z,64.49
2019-06-20T00:12:59.839Z,64.58
2019-06-20T00:13:51.437Z,64.51
2019-06-20T00:14:54.046Z,64.49
2019-06-20T00:15:56.315Z,64.52
2019-06-20T00:16:59.568Z,64.50
2019-06-20T00:18:01.864Z,64.40
2019-06-20T00:19:04.478Z,64.41
2019-06-20T00:20:06.691Z,64.42
2019-06-20T00:21:09.313Z,64.40
2019-06-20T00:22:11.617Z,64.55
2019-06-20T00:23:14.235Z,64.47
2019-06-20T00:24:16.431Z,64.51
2019-06-20T00:25:19.031Z,64.54
2019-06-20T00:26:21.242Z,64.54
2019-06-20T00:27:23.825Z,64.55
2019-06-20T00:28:26.056Z,64.42
2019-06-20T00:29:28.662Z,64.44
2019-06-20T00:30:31.137Z,64.48
2019-06-20T00:31:33.753Z,64.48
2019-06-20T00:32:35.963Z,64.47
2019-06-20T00:33:38.567Z,64.55
2019-06-20T00:34:40.779Z,64.51
2019-06-20T00:35:43.364Z,64.50
2019-06-20T00:36:45.567Z,64.52
2019-06-20T00:37:48.164Z,64.45
2019-06-20T00:38:50.386Z,64.39
2019-06-20T00:39:52.986Z,64.41
2019-06-20T00:40:55.203Z,64.42
2019-06-20T00:41:57.825Z,64.40
2019-06-20T00:43:13.398Z,64.54
2019-06-20T00:44:04.304Z,64.50
2019-06-20T00:45:06.575Z,64.47
2019-06-20T00:46:09.082Z,64.46
2019-06-20T00:47:11.283Z,64.51
2019-06-20T00:48:13.880Z,64.46
2019-06-20T00:49:16.094Z,64.44
2019-06-20T00:50:18.723Z,64.41
2019-06-20T00:51:20.882Z,64.48
2019-06-20T00:52:23.476Z,64.52
2019-06-20T00:53:25.741Z,64.46
2019-06-20T00:54:28.482Z,64.47
2019-06-20T00:55:30.722Z,64.51
2019-06-20T00:56:33.333Z,64.48
2019-06-20T00:57:35.543Z,64.50
2019-06-20T00:58:38.160Z,64.48
2019-06-20T00:59:40.364Z,64.45
2019-06-20T01:00:42.970Z,64.50
2019-06-20T01:01:45.179Z,64.55
2019-06-20T01:02:47.774Z,64.65
2019-06-20T01:03:50.026Z,64.51
2019-06-20T01:04:52.618Z,64.52
2019-06-20T01:05:54.843Z,64.48
2019-06-20T01:06:57.422Z,64.52
2019-06-20T01:07:59.639Z,64.48
2019-06-20T01:09:02.267Z,64.47
2019-06-20T01:10:04.485Z,64.56
2019-06-20T01:11:07.084Z,64.56
2019-06-20T01:12:09.314Z,64.63
2019-06-20T01:13:11.898Z,64.58
2019-06-20T01:14:14.160Z,64.59
2019-06-20T01:15:16.753Z,64.57
2019-06-20T01:16:18.959Z,64.53
2019-06-20T01:17:21.579Z,64.59
2019-06-20T01:18:23.776Z,64.55
2019-06-20T01:19:26.393Z,64.57
2019-06-20T01:20:28.589Z,64.60
2019-06-20T01:21:31.184Z,64.53
2019-06-20T01:22:33.394Z,64.56
2019-06-20T01:23:35.996Z,64.61
2019-06-20T01:24:38.217Z,64.52
2019-06-20T01:25:40.814Z,64.69
2019-06-20T01:26:43.014Z,64.80
2019-06-20T01:27:45.608Z,64.70
2019-06-20T01:28:47.915Z,64.75
2019-06-20T01:29:50.528Z,64.77
2019-06-20T01:30:52.762Z,64.73
2019-06-20T01:31:55.344Z,64.68
2019-06-20T01:32:57.573Z,64.77
2019-06-20T01:34:00.169Z,64.78
2019-06-20T01:35:02.466Z,64.83
2019-06-20T01:36:05.058Z,64.73
2019-06-20T01:37:07.265Z,64.72
2019-06-20T01:38:09.850Z,64.68
2019-06-20T01:39:12.164Z,64.77
2019-06-20T01:40:14.802Z,64.62
2019-06-20T01:41:17.000Z,64.67
2019-06-20T01:42:19.596Z,64.77
2019-06-20T01:43:21.826Z,64.77
2019-06-20T01:44:24.425Z,64.76
2019-06-20T01:45:26.755Z,64.81
2019-06-20T01:46:29.359Z,64.78
2019-06-20T01:47:31.565Z,64.80
2019-06-20T01:48:34.552Z,64.76
2019-06-20T01:49:36.780Z,64.70
2019-06-20T01:50:39.388Z,64.75
2019-06-20T01:51:41.599Z,64.65
2019-06-20T01:52:44.196Z,64.71
2019-06-20T01:53:46.420Z,64.63
2019-06-20T01:54:49.024Z,64.68
2019-06-20T01:55:51.266Z,64.59
2019-06-20T01:56:53.870Z,64.70
2019-06-20T01:57:56.102Z,64.72
2019-06-20T01:58:58.668Z,64.71
2019-06-20T02:00:00.876Z,64.71
2019-06-20T02:01:03.506Z,64.70
2019-06-20T02:02:05.703Z,64.68
2019-06-20T02:03:08.303Z,64.62
2019-06-20T02:04:10.523Z,64.69
2019-06-20T02:05:13.118Z,64.59
2019-06-20T02:06:15.343Z,64.78
2019-06-20T02:07:17.938Z,64.70
2019-06-20T02:08:20.139Z,64.69
2019-06-20T02:09:22.738Z,64.69
2019-06-20T02:10:24.941Z,64.81
2019-06-20T02:11:27.541Z,64.70
2019-06-20T02:12:29.795Z,64.71
2019-06-20T02:13:32.338Z,64.63
2019-06-20T02:14:34.546Z,64.67
2019-06-20T02:15:37.144Z,64.67
2019-06-20T02:16:39.365Z,64.67
2019-06-20T02:17:41.965Z,64.67
2019-06-20T02:18:44.180Z,64.64
2019-06-20T02:19:46.788Z,64.67
2019-06-20T02:20:48.999Z,64.65
2019-06-20T02:21:51.627Z,64.73
2019-06-20T02:22:53.852Z,64.67
2019-06-20T02:23:56.447Z,64.69
2019-06-20T02:24:58.644Z,64.70
2019-06-20T02:26:01.253Z,64.72
2019-06-20T02:27:03.480Z,64.75
2019-06-20T02:28:06.068Z,64.70
2019-06-20T02:29:11.296Z,64.67
2019-06-20T02:30:13.895Z,64.79
2019-06-20T02:31:16.098Z,64.75
2019-06-20T02:32:19.036Z,64.75
2019-06-20T02:33:21.272Z,64.80
2019-06-20T02:34:23.856Z,64.80
2019-06-20T02:35:26.061Z,64.83
2019-06-20T02:36:28.693Z,64.84
2019-06-20T02:37:30.888Z,64.84
2019-06-20T02:38:33.489Z,64.81
2019-06-20T02:39:35.692Z,64.77
2019-06-20T02:40:38.290Z,64.83
2019-06-20T02:41:40.497Z,64.83
2019-06-20T02:42:43.126Z,64.82
2019-06-20T02:43:45.334Z,64.85
2019-06-20T02:44:47.935Z,64.81
2019-06-20T02:45:50.150Z,64.72
2019-06-20T02:46:52.748Z,64.76
2019-06-20T02:47:56.556Z,64.82
2019-06-20T02:48:59.153Z,64.77
2019-06-20T02:50:01.353Z,64.78
2019-06-20T02:51:03.935Z,64.82
2019-06-20T02:52:06.168Z,64.88
2019-06-20T02:53:08.772Z,64.83
2019-06-20T02:54:10.968Z,64.81
2019-06-20T02:55:13.566Z,64.83
2019-06-20T02:56:15.751Z,64.74
2019-06-20T02:57:18.339Z,64.81
2019-06-20T02:58:20.572Z,64.75
2019-06-20T02:59:23.178Z,64.78
2019-06-20T03:00:25.375Z,64.82
2019-06-20T03:01:27.963Z,64.82
2019-06-20T03:02:30.178Z,64.78
2019-06-20T03:03:32.798Z,64.78
2019-06-20T03:04:35.000Z,64.81
2019-06-20T03:05:37.595Z,64.79
2019-06-20T03:06:39.789Z,64.81
2019-06-20T03:07:42.393Z,64.76
2019-06-20T03:08:44.612Z,64.81
2019-06-20T03:09:47.195Z,64.76
2019-06-20T03:10:49.400Z,64.71
2019-06-20T03:11:52.024Z,64.75
2019-06-20T03:12:54.214Z,64.77
2019-06-20T03:13:56.844Z,64.77
2019-06-20T03:14:59.051Z,64.76
2019-06-20T03:16:02.833Z,64.77
2019-06-20T03:17:05.045Z,64.72
2019-06-20T03:18:07.630Z,64.76
2019-06-20T03:19:09.862Z,64.77
2019-06-20T03:20:12.470Z,64.76
2019-06-20T03:21:14.671Z,64.80
2019-06-20T03:22:17.296Z,64.69
2019-06-20T03:23:19.523Z,64.70
2019-06-20T03:24:22.153Z,64.68
2019-06-20T03:25:24.417Z,64.66
2019-06-20T03:26:27.049Z,64.62
2019-06-20T03:27:29.250Z,64.61
2019-06-20T03:28:31.837Z,64.60
2019-06-20T03:29:34.200Z,64.66
2019-06-20T03:30:36.864Z,64.61
2019-06-20T03:31:39.061Z,64.54
2019-06-20T03:32:41.708Z,64.61
2019-06-20T03:33:43.967Z,64.57
2019-06-20T03:34:46.587Z,64.58
2019-06-20T03:35:48.798Z,64.56
2019-06-20T03:36:51.394Z,64.54
2019-06-20T03:37:53.601Z,64.57
2019-06-20T03:38:56.192Z,64.56
2019-06-20T03:39:58.424Z,64.50
2019-06-20T03:41:01.036Z,64.48
2019-06-20T03:42:03.277Z,64.52
2019-06-20T03:43:05.812Z,64.49
2019-06-20T03:44:08.027Z,64.48
2019-06-20T03:45:10.647Z,64.42
2019-06-20T03:46:12.890Z,64.46
2019-06-20T03:47:15.497Z,64.44
2019-06-20T03:48:17.692Z,64.42
2019-06-20T03:49:20.287Z,64.43
2019-06-20T03:50:22.525Z,64.39
2019-06-20T03:51:25.112Z,64.37
2019-06-20T03:52:27.325Z,64.45
2019-06-20T03:53:29.917Z,64.41
2019-06-20T03:54:32.133Z,64.35
2019-06-20T03:55:34.758Z,64.33
2019-06-20T03:56:36.963Z,64.36
2019-06-20T03:57:39.561Z,64.33
2019-06-20T03:58:41.783Z,64.41
2019-06-20T03:59:44.376Z,64.39
2019-06-20T04:00:46.607Z,64.37
2019-06-20T04:01:49.344Z,64.29
2019-06-20T04:02:51.618Z,64.31
2019-06-20T04:03:54.212Z,64.28
2019-06-20T04:04:56.408Z,64.22
2019-06-20T04:05:59.037Z,64.27
2019-06-20T04:07:01.262Z,64.31
2019-06-20T04:08:03.846Z,64.27
2019-06-20T04:09:06.024Z,64.21
2019-06-20T04:10:08.640Z,64.20
2019-06-20T04:11:10.880Z,64.16
2019-06-20T04:12:13.450Z,63.96
2019-06-20T04:13:15.666Z,64.12
2019-06-20T04:14:18.264Z,64.17
2019-06-20T04:15:20.467Z,64.06
2019-06-20T04:16:23.128Z,64.12
2019-06-20T04:17:25.334Z,64.12
2019-06-20T04:18:28.048Z,64.06
2019-06-20T04:19:30.261Z,64.10
2019-06-20T04:20:32.852Z,64.06
2019-06-20T04:21:35.136Z,64.05
2019-06-20T04:22:37.766Z,64.08
2019-06-20T04:23:39.958Z,64.01
2019-06-20T04:24:42.567Z,64.04
2019-06-20T04:25:44.765Z,64.01
2019-06-20T04:26:47.461Z,63.90
2019-06-20T04:27:49.656Z,63.88
2019-06-20T04:28:52.260Z,63.89
2019-06-20T04:29:54.493Z,63.94
2019-06-20T04:30:57.085Z,63.95
2019-06-20T04:31:59.327Z,63.83
2019-06-20T04:33:01.965Z,63.93
2019-06-20T04:34:04.163Z,63.87
2019-06-20T04:35:06.763Z,63.76
2019-06-20T04:36:08.979Z,63.81
2019-06-20T04:37:11.612Z,63.82
2019-06-20T04:38:13.812Z,63.79
2019-06-20T04:39:19.458Z,63.81
2019-06-20T04:40:20.322Z,63.79
2019-06-20T04:41:22.893Z,63.81
2019-06-20T04:42:25.130Z,63.81
2019-06-20T04:43:28.044Z,63.80
2019-06-20T04:44:30.252Z,63.76
2019-06-20T04:45:51.416Z,63.76
2019-06-20T04:47:02.428Z,63.79
2019-06-20T04:48:05.056Z,63.73
2019-06-20T04:49:07.259Z,63.74
2019-06-20T04:50:09.843Z,63.70
2019-06-20T04:51:12.082Z,63.71
2019-06-20T04:52:14.698Z,63.62
2019-06-20T04:53:16.945Z,63.68
2019-06-20T04:54:19.610Z,63.67
2019-06-20T04:55:21.846Z,63.61
2019-06-20T04:56:24.443Z,63.66
2019-06-20T04:57:27.792Z,63.61
2019-06-20T04:58:30.406Z,63.67
2019-06-20T04:59:32.597Z,63.66
2019-06-20T05:00:35.184Z,63.63
2019-06-20T05:01:37.451Z,63.62
2019-06-20T05:02:40.127Z,63.68
2019-06-20T05:03:42.339Z,63.64
2019-06-20T05:04:44.943Z,63.59
2019-06-20T05:05:47.165Z,63.59
2019-06-20T05:06:49.815Z,63.59
2019-06-20T05:07:52.005Z,63.60
2019-06-20T05:08:54.612Z,63.56
2019-06-20T05:09:56.823Z,63.60
2019-06-20T05:10:59.471Z,63.62
2019-06-20T05:12:01.705Z,63.55
2019-06-20T05:13:04.307Z,63.57
2019-06-20T05:14:06.522Z,63.61
2019-06-20T05:15:09.129Z,63.60
2019-06-20T05:16:11.336Z,63.61
2019-06-20T05:17:13.962Z,63.62
2019-06-20T05:18:16.188Z,63.66
2019-06-20T05:19:18.772Z,63.58
2019-06-20T05:20:21.006Z,63.61
2019-06-20T05:21:23.579Z,63.62
2019-06-20T05:22:25.791Z,63.63
2019-06-20T05:23:28.389Z,63.63
2019-06-20T05:24:30.609Z,63.60
2019-06-20T05:25:33.219Z,63.60
2019-06-20T05:26:35.426Z,63.59
2019-06-20T05:27:38.051Z,63.58
2019-06-20T05:28:40.271Z,63.56
2019-06-20T05:29:42.887Z,63.55
2019-06-20T05:30:45.106Z,63.56
2019-06-20T05:31:47.707Z,63.56
2019-06-20T05:32:49.924Z,63.57
2019-06-20T05:33:52.560Z,63.55
2019-06-20T05:34:54.847Z,63.51
2019-06-20T05:35:57.445Z,63.47
2019-06-20T05:36:59.692Z,63.47
2019-06-20T05:38:02.395Z,63.49
2019-06-20T05:39:05.487Z,63.50
2019-06-20T05:40:08.101Z,63.50
2019-06-20T05:41:10.312Z,63.49
2019-06-20T05:42:12.933Z,63.46
2019-06-20T05:43:15.146Z,63.46
2019-06-20T05:44:17.760Z,63.48
2019-06-20T05:45:19.953Z,63.55
2019-06-20T05:46:22.585Z,63.55
2019-06-20T05:47:24.785Z,63.57
2019-06-20T05:48:27.398Z,63.57
2019-06-20T05:49:29.613Z,63.56
2019-06-20T05:50:32.248Z,63.57
2019-06-20T05:51:34.484Z,63.57
2019-06-20T05:52:37.097Z,63.60
2019-06-20T05:53:39.289Z,63.60
2019-06-20T05:54:41.896Z,63.63
2019-06-20T05:55:44.166Z,63.77
2019-06-20T05:56:46.756Z,63.72
2019-06-20T05:57:49.012Z,63.74
2019-06-20T05:58:51.624Z,63.79
2019-06-20T05:59:53.845Z,63.81
2019-06-20T06:00:56.532Z,63.89
2019-06-20T06:01:58.769Z,63.97
2019-06-20T06:03:01.363Z,64.01
2019-06-20T06:04:03.595Z,63.91
2019-06-20T06:05:07.299Z,63.88
2019-06-20T06:06:09.506Z,63.87
2019-06-20T06:07:14.238Z,63.83
2019-06-20T06:08:16.420Z,63.90
2019-06-20T06:09:19.088Z,63.95
2019-06-20T06:10:21.313Z,63.97
2019-06-20T06:11:23.902Z,63.95
2019-06-20T06:12:26.148Z,63.91
2019-06-20T06:13:28.748Z,63.90
2019-06-20T06:14:31.611Z,63.90
2019-06-20T06:15:34.270Z,63.87
2019-06-20T06:16:36.481Z,63.87
2019-06-20T06:17:39.124Z,63.82
2019-06-20T06:18:41.352Z,63.79
2019-06-20T06:19:43.978Z,63.80
2019-06-20T06:20:47.877Z,63.80
2019-06-20T06:21:50.500Z,63.77
2019-06-20T06:22:52.731Z,63.75
2019-06-20T06:23:55.342Z,63.72
2019-06-20T06:24:57.562Z,63.70
2019-06-20T06:26:00.172Z,63.66
2019-06-20T06:27:02.421Z,63.67
2019-06-20T06:28:05.055Z,63.59
2019-06-20T06:29:07.305Z,63.62
2019-06-20T06:30:09.901Z,63.58
2019-06-20T06:31:12.109Z,63.59
2019-06-20T06:32:14.708Z,63.57
2019-06-20T06:33:16.953Z,63.55
2019-06-20T06:34:22.020Z,63.55
2019-06-20T06:35:23.418Z,63.53
2019-06-20T06:36:26.020Z,63.55
2019-06-20T06:37:28.312Z,63.57
2019-06-20T06:38:31.461Z,63.57
2019-06-20T06:39:33.693Z,63.57
2019-06-20T06:40:36.295Z,63.58
2019-06-20T06:41:40.211Z,63.60
2019-06-20T06:42:42.826Z,63.60
2019-06-20T06:43:45.054Z,63.60
2019-06-20T06:44:47.645Z,63.60
2019-06-20T06:45:49.860Z,63.58
2019-06-20T06:46:57.499Z,63.62
2019-06-20T06:47:56.317Z,63.59
2019-06-20T06:48:58.927Z,63.56
2019-06-20T06:50:01.142Z,63.56
2019-06-20T06:51:04.899Z,63.55
2019-06-20T06:52:07.063Z,63.55
2019-06-20T06:53:09.700Z,63.55
2019-06-20T06:54:11.918Z,63.58
2019-06-20T06:55:14.514Z,63.59
2019-06-20T06:56:16.730Z,63.58
2019-06-20T06:57:19.349Z,63.58
2019-06-20T06:58:21.552Z,63.57
2019-06-20T06:59:24.171Z,63.56
2019-06-20T07:00:26.376Z,63.52
2019-06-20T07:01:28.994Z,63.53
2019-06-20T07:02:31.233Z,63.52
2019-06-20T07:03:33.859Z,63.52
2019-06-20T07:04:36.068Z,63.54
2019-06-20T07:05:38.672Z,63.56
2019-06-20T07:06:40.917Z,63.56
2019-06-20T07:07:43.508Z,63.56
2019-06-20T07:08:45.737Z,63.53
2019-06-20T07:09:48.337Z,63.49
2019-06-20T07:10:50.581Z,63.52
2019-06-20T07:11:53.208Z,63.50
2019-06-20T07:12:55.401Z,63.52
2019-06-20T07:13:58.014Z,63.47
2019-06-20T07:15:00.231Z,63.51
2019-06-20T07:16:02.823Z,63.47
2019-06-20T07:17:05.024Z,63.48
2019-06-20T07:18:07.622Z,63.47
2019-06-20T07:19:09.860Z,63.47
2019-06-20T07:20:15.117Z,63.53
2019-06-20T07:21:16.329Z,63.51
2019-06-20T07:22:18.923Z,63.50
2019-06-20T07:23:21.167Z,63.50
2019-06-20T07:24:23.753Z,63.48
2019-06-20T07:25:25.964Z,63.48
2019-06-20T07:26:28.572Z,63.49
2019-06-20T07:27:30.769Z,63.48
2019-06-20T07:28:33.409Z,63.48
2019-06-20T07:29:35.635Z,63.51
2019-06-20T07:30:38.220Z,63.51
2019-06-20T07:31:40.435Z,63.53
2019-06-20T07:32:43.029Z,63.55
2019-06-20T07:33:45.248Z,63.52
2019-06-20T07:34:47.847Z,63.54
2019-06-20T07:35:50.065Z,63.47
2019-06-20T07:36:52.669Z,63.43
2019-06-20T07:37:54.876Z,63.44
2019-06-20T07:38:57.511Z,63.42
2019-06-20T07:39:59.947Z,63.38
2019-06-20T07:41:02.548Z,63.39
2019-06-20T07:42:04.749Z,63.40
2019-06-20T07:43:07.396Z,63.36
2019-06-20T07:44:09.615Z,63.38
2019-06-20T07:45:12.223Z,63.33
2019-06-20T07:46:14.440Z,63.34
2019-06-20T07:47:18.207Z,63.31
2019-06-20T07:48:20.515Z,63.27
2019-06-20T07:49:23.122Z,63.25
2019-06-20T07:50:25.355Z,63.27
2019-06-20T07:51:27.956Z,63.25
2019-06-20T07:52:30.177Z,63.25
2019-06-20T07:53:32.780Z,63.21
2019-06-20T07:54:35.020Z,63.22
2019-06-20T07:55:37.626Z,63.20
2019-06-20T07:56:39.904Z,63.21
2019-06-20T07:57:42.534Z,63.22
2019-06-20T07:58:44.705Z,63.19
2019-06-20T07:59:47.342Z,63.17
2019-06-20T08:00:49.545Z,63.18
2019-06-20T08:01:52.159Z,63.18
2019-06-20T08:02:54.385Z,63.13
2019-06-20T08:03:57.028Z,63.15
2019-06-20T08:04:59.257Z,63.09
2019-06-20T08:06:01.869Z,63.09
2019-06-20T08:07:04.072Z,63.06
2019-06-20T08:08:06.704Z,63.05
2019-06-20T08:09:08.943Z,63.04
2019-06-20T08:10:11.565Z,63.07
2019-06-20T08:11:13.782Z,63.06
2019-06-20T08:12:16.379Z,63.05
2019-06-20T08:13:18.600Z,63.08
2019-06-20T08:14:21.237Z,63.11
2019-06-20T08:15:23.472Z,63.09
2019-06-20T08:16:26.071Z,63.10
2019-06-20T08:17:35.164Z,63.12
2019-06-20T08:18:32.547Z,63.10
2019-06-20T08:19:34.775Z,63.10
2019-06-20T08:20:37.365Z,63.14
2019-06-20T08:21:39.579Z,63.13
2019-06-20T08:22:42.171Z,63.12
2019-06-20T08:23:44.382Z,63.13
2019-06-20T08:24:46.998Z,63.15
2019-06-20T08:25:49.196Z,63.13
2019-06-20T08:26:51.793Z,63.12
2019-06-20T08:27:54.039Z,63.11
2019-06-20T08:29:10.164Z,63.11
2019-06-20T08:30:00.984Z,63.07
2019-06-20T08:31:04.831Z,63.09
2019-06-20T08:32:07.144Z,63.07
2019-06-20T08:33:12.168Z,63.08
2019-06-20T08:34:13.934Z,63.09
2019-06-20T08:35:16.698Z,63.09
2019-06-20T08:36:18.913Z,63.08
2019-06-20T08:37:21.508Z,63.06
2019-06-20T08:38:23.737Z,63.06
2019-06-20T08:39:29.311Z,63.06
2019-06-20T08:40:30.233Z,63.06
2019-06-20T08:41:32.832Z,63.04
2019-06-20T08:42:35.024Z,63.04
2019-06-20T08:43:37.639Z,63.02
2019-06-20T08:44:39.859Z,63.04
2019-06-20T08:45:42.468Z,63.07
2019-06-20T08:46:44.664Z,63.05
2019-06-20T08:47:47.276Z,63.04
2019-06-20T08:48:49.496Z,63.03
2019-06-20T08:49:52.336Z,63.04
2019-06-20T08:50:56.792Z,62.99
2019-06-20T08:51:59.216Z,62.98
2019-06-20T08:53:01.801Z,63.04
2019-06-20T08:54:05.756Z,63.02
2019-06-20T08:55:08.010Z,62.95
2019-06-20T08:56:10.608Z,62.93
2019-06-20T08:57:12.817Z,62.95
2019-06-20T08:58:15.501Z,62.95
2019-06-20T08:59:24.494Z,62.93
2019-06-20T09:00:21.954Z,62.94
2019-06-20T09:01:24.159Z,62.89
2019-06-20T09:02:26.760Z,62.90
2019-06-20T09:03:29.043Z,62.86
2019-06-20T09:04:31.676Z,62.86
2019-06-20T09:05:33.892Z,62.86
2019-06-20T09:06:36.492Z,62.88
2019-06-20T09:07:41.692Z,62.86
2019-06-20T09:08:42.954Z,62.87
2019-06-20T09:09:45.173Z,62.85
2019-06-20T09:10:47.781Z,62.83
2019-06-20T09:11:49.994Z,62.79
2019-06-20T09:12:53.674Z,62.84
2019-06-20T09:13:57.235Z,62.84
2019-06-20T09:15:01.214Z,62.96
2019-06-20T09:16:03.552Z,62.90
2019-06-20T09:17:06.157Z,62.85
2019-06-20T09:18:08.373Z,62.87
2019-06-20T09:19:10.978Z,62.90
2019-06-20T09:20:13.189Z,62.93
2019-06-20T09:21:15.845Z,62.95
2019-06-20T09:22:18.098Z,62.94
2019-06-20T09:23:20.701Z,62.91
2019-06-20T09:24:22.923Z,62.95
2019-06-20T09:25:25.543Z,63.00
2019-06-20T09:26:27.754Z,63.02
2019-06-20T09:27:30.384Z,63.05
2019-06-20T09:28:32.603Z,62.96
2019-06-20T09:29:41.817Z,62.94
2019-06-20T09:30:39.081Z,62.91
2019-06-20T09:31:41.731Z,62.94
2019-06-20T09:32:43.896Z,62.95
2019-06-20T09:33:46.496Z,62.92
2019-06-20T09:34:51.373Z,62.91
2019-06-20T09:35:53.985Z,62.89
2019-06-20T09:36:57.518Z,62.89
2019-06-20T09:38:00.165Z,62.92
2019-06-20T09:39:03.736Z,62.88
2019-06-20T09:40:06.487Z,62.90
2019-06-20T09:41:08.682Z,62.93
2019-06-20T09:42:11.311Z,62.87
2019-06-20T09:43:26.749Z,62.88
2019-06-20T09:44:17.785Z,62.89
2019-06-20T09:45:20.040Z,62.82
2019-06-20T09:46:22.648Z,62.84
2019-06-20T09:47:24.876Z,62.87
2019-06-20T09:48:27.761Z,62.83
2019-06-20T09:49:30.107Z,62.82
2019-06-20T09:50:32.745Z,62.86
2019-06-20T09:51:34.949Z,62.83
2019-06-20T09:52:37.545Z,62.82
2019-06-20T09:53:39.753Z,62.81
2019-06-20T09:54:42.368Z,62.77
2019-06-20T09:55:44.585Z,62.83
2019-06-20T09:56:48.869Z,62.85
2019-06-20T09:57:52.017Z,62.87
2019-06-20T09:58:55.325Z,62.91
2019-06-20T10:00:07.582Z,62.83
2019-06-20T10:01:01.825Z,62.81
2019-06-20T10:02:04.045Z,62.82
2019-06-20T10:03:06.657Z,62.81
2019-06-20T10:04:08.865Z,62.80
2019-06-20T10:05:11.467Z,62.79
2019-06-20T10:06:14.637Z,62.86
2019-06-20T10:07:17.503Z,62.81
2019-06-20T10:08:19.724Z,62.81
2019-06-20T10:09:22.318Z,62.80
2019-06-20T10:10:24.539Z,62.79
2019-06-20T10:11:27.138Z,62.82
2019-06-20T10:12:29.334Z,62.79
2019-06-20T10:13:32.897Z,62.80
2019-06-20T10:14:35.149Z,62.78
2019-06-20T10:15:37.738Z,62.78
2019-06-20T10:16:45.778Z,62.79
2019-06-20T10:17:44.237Z,62.80
2019-06-20T10:18:48.163Z,62.80
2019-06-20T10:19:52.026Z,62.86
2019-06-20T10:20:54.393Z,62.86
2019-06-20T10:21:56.996Z,62.82
2019-06-20T10:22:59.197Z,62.86
2019-06-20T10:24:01.811Z,62.80
2019-06-20T10:25:03.984Z,62.81
2019-06-20T10:26:06.639Z,62.81
2019-06-20T10:27:08.820Z,62.80
2019-06-20T10:28:11.421Z,62.81
2019-06-20T10:29:13.632Z,62.82
2019-06-20T10:30:16.234Z,62.81
2019-06-20T10:31:18.468Z,62.79
2019-06-20T10:32:21.052Z,62.79
2019-06-20T10:33:23.299Z,62.79
2019-06-20T10:34:25.893Z,62.76
2019-06-20T10:35:28.122Z,62.80
2019-06-20T10:36:30.759Z,62.79
2019-06-20T10:37:32.963Z,62.80
2019-06-20T10:38:35.571Z,62.78
2019-06-20T10:39:37.780Z,62.79
2019-06-20T10:40:40.400Z,62.81
2019-06-20T10:41:43.567Z,62.80
2019-06-20T10:42:47.990Z,62.73
2019-06-20T10:43:51.657Z,62.76
2019-06-20T10:44:54.389Z,62.81
2019-06-20T10:45:56.753Z,62.78
2019-06-20T10:46:59.417Z,62.72
2019-06-20T10:48:01.628Z,62.76
2019-06-20T10:49:04.229Z,62.71
2019-06-20T10:50:06.448Z,62.76
2019-06-20T10:51:26.233Z,62.72
2019-06-20T10:52:28.459Z,62.82
2019-06-20T10:53:31.054Z,62.73
2019-06-20T10:54:33.256Z,62.72
2019-06-20T10:55:35.868Z,62.73
2019-06-20T10:56:38.098Z,62.71
2019-06-20T10:57:41.834Z,62.73
2019-06-20T10:58:44.620Z,62.69
2019-06-20T10:59:48.434Z,62.72
2019-06-20T11:00:50.748Z,62.74
2019-06-20T11:01:53.343Z,62.70
2019-06-20T11:02:55.545Z,62.72
2019-06-20T11:03:58.142Z,62.70
2019-06-20T11:05:00.354Z,62.71
2019-06-20T11:06:02.977Z,62.71
2019-06-20T11:07:05.191Z,62.70
2019-06-20T11:08:07.777Z,62.74
2019-06-20T11:09:10.113Z,62.68
2019-06-20T11:10:12.721Z,62.67
2019-06-20T11:11:14.933Z,62.69
2019-06-20T11:12:17.560Z,62.68
2019-06-20T11:13:19.845Z,62.72
2019-06-20T11:14:22.454Z,62.67
2019-06-20T11:15:24.652Z,62.68
2019-06-20T11:16:27.260Z,62.61
2019-06-20T11:17:29.460Z,62.65
2019-06-20T11:18:32.048Z,62.66
2019-06-20T11:19:34.259Z,62.63
2019-06-20T11:20:37.842Z,62.58
2019-06-20T11:21:41.619Z,62.60
2019-06-20T11:22:45.377Z,62.58
2019-06-20T11:23:47.734Z,62.59
2019-06-20T11:24:50.396Z,62.58
2019-06-20T11:25:52.638Z,62.66
2019-06-20T11:26:55.176Z,62.66
2019-06-20T11:27:57.403Z,62.66
2019-06-20T11:28:59.980Z,62.58
2019-06-20T11:30:02.198Z,62.55
2019-06-20T11:31:04.808Z,62.57
2019-06-20T11:32:07.029Z,62.55
2019-06-20T11:33:09.633Z,62.58
2019-06-20T11:34:11.850Z,62.55
2019-06-20T11:35:14.442Z,62.55
2019-06-20T11:36:16.634Z,62.57
2019-06-20T11:37:19.249Z,62.60
2019-06-20T11:38:21.454Z,62.59
2019-06-20T11:39:24.062Z,62.57
2019-06-20T11:40:26.277Z,62.57
2019-06-20T11:41:28.866Z,62.57
2019-06-20T11:42:31.141Z,62.54
2019-06-20T11:43:35.197Z,62.52
2019-06-20T11:44:38.837Z,62.54
2019-06-20T11:45:43.008Z,62.54
2019-06-20T11:46:45.370Z,62.50
2019-06-20T11:47:47.964Z,62.52
2019-06-20T11:48:50.193Z,62.52
2019-06-20T11:49:52.784Z,62.50
2019-06-20T11:50:54.989Z,62.52
2019-06-20T11:51:57.604Z,62.51
2019-06-20T11:52:59.801Z,62.52
2019-06-20T11:54:02.399Z,62.54
2019-06-20T11:55:04.605Z,62.48
2019-06-20T11:56:07.143Z,62.49
2019-06-20T11:57:09.380Z,62.48
2019-06-20T11:58:12.068Z,62.41
2019-06-20T11:59:14.379Z,62.41
2019-06-20T12:00:16.970Z,62.44
2019-06-20T12:01:32.262Z,62.45
2019-06-20T12:02:23.434Z,62.46
2019-06-20T12:03:25.638Z,62.45
2019-06-20T12:04:28.234Z,62.47
2019-06-20T12:05:30.446Z,62.46
2019-06-20T12:06:33.062Z,62.50
2019-06-20T12:07:35.275Z,62.51
2019-06-20T12:08:39.123Z,62.57
2019-06-20T12:09:41.872Z,62.56
2019-06-20T12:10:45.185Z,62.54
2019-06-20T12:11:48.773Z,62.49
2019-06-20T12:12:51.491Z,62.48
2019-06-20T12:13:53.695Z,62.47
2019-06-20T12:14:56.296Z,62.48
2019-06-20T12:15:58.516Z,62.49
2019-06-20T12:17:01.129Z,62.48
2019-06-20T12:18:03.326Z,62.49
2019-06-20T12:19:05.924Z,62.46
2019-06-20T12:20:08.134Z,62.49
2019-06-20T12:21:10.717Z,62.48
2019-06-20T12:22:12.959Z,62.46
2019-06-20T12:23:15.548Z,62.50
2019-06-20T12:24:17.755Z,62.55
2019-06-20T12:25:20.357Z,62.51
2019-06-20T12:26:22.556Z,62.47
2019-06-20T12:27:25.179Z,62.47
2019-06-20T12:28:27.403Z,62.51
2019-06-20T12:29:30.019Z,62.50
2019-06-20T12:30:32.241Z,62.49
2019-06-20T12:31:34.856Z,62.51
2019-06-20T12:32:37.060Z,62.50
2019-06-20T12:33:40.818Z,62.50
2019-06-20T12:34:44.495Z,62.49
2019-06-20T12:35:48.598Z,62.51
2019-06-20T12:36:51.010Z,62.50
2019-06-20T12:37:53.604Z,62.49
2019-06-20T12:38:55.806Z,62.51
2019-06-20T12:39:58.398Z,62.49
2019-06-20T12:41:00.596Z,62.48
2019-06-20T12:42:03.302Z,62.50
2019-06-20T12:43:06.923Z,62.45
2019-06-20T12:44:09.494Z,62.47
2019-06-20T12:45:11.737Z,62.45
2019-06-20T12:46:14.332Z,62.47
2019-06-20T12:47:16.568Z,62.45
2019-06-20T12:48:19.173Z,62.45
2019-06-20T12:49:23.927Z,62.42
2019-06-20T12:50:25.627Z,62.41
2019-06-20T12:51:27.846Z,62.43
2019-06-20T12:52:30.494Z,62.46
2019-06-20T12:53:32.787Z,62.47
2019-06-20T12:54:35.379Z,62.47
2019-06-20T12:55:38.932Z,62.47
2019-06-20T12:56:41.957Z,62.45
2019-06-20T12:57:44.326Z,62.49
2019-06-20T12:58:48.421Z,62.48
2019-06-20T12:59:50.747Z,62.48
2019-06-20T13:00:53.328Z,62.49
2019-06-20T13:01:55.655Z,62.47
2019-06-20T13:02:58.328Z,62.45
2019-06-20T13:04:00.548Z,62.48
2019-06-20T13:05:03.169Z,62.41
2019-06-20T13:06:05.375Z,62.45
2019-06-20T13:07:07.983Z,62.43
2019-06-20T13:08:13.460Z,62.42
2019-06-20T13:09:14.605Z,62.42
2019-06-20T13:10:16.815Z,62.40
2019-06-20T13:11:19.406Z,62.39
2019-06-20T13:12:21.822Z,62.39
2019-06-20T13:13:24.407Z,62.45
2019-06-20T13:14:26.612Z,62.41
2019-06-20T13:15:29.195Z,62.41
2019-06-20T13:16:31.396Z,62.44
2019-06-20T13:17:34.022Z,62.41
2019-06-20T13:18:36.225Z,62.39
2019-06-20T13:19:40.248Z,62.39
2019-06-20T13:20:42.532Z,62.43
2019-06-20T13:21:46.499Z,62.43
2019-06-20T13:22:49.526Z,62.40
2019-06-20T13:23:52.359Z,62.41
2019-06-20T13:24:54.608Z,62.33
2019-06-20T13:25:57.209Z,62.33